LNX65AT GABS-DFFD
Flight info
| Callsign | LNX65AT |
|---|---|
| Flight time | 0h 53m |
| Altitude | 31000 |
| Route | BKO G860 EDGIB EDGIB1A |
| Aircraft | GLF6/M-SBDE2E3FGHIJ4J5M1RWXY/LB1D1 |
Departure
| Time | 2026-04-20 21:29 |
|---|---|
| Airport | Modibo Keita International Airport (GABS) |
Arrival
| Time | 2026-04-20 22:22 |
|---|---|
| Airport | Ouagadougou Thomas Sankara International Airport (DFFD) |
| Time | Latitude | Longitude | Altitude | Speed | Heading |
|---|---|---|---|---|---|
| 2026-04-20 21:25 | 12.54657 | -7.93636 | 1255 ft | 0 kts | 145° |
| 2026-04-20 21:27 | 12.54626 | -7.93616 | 1255 ft | 11 kts | 160° |
| 2026-04-20 21:27 | 12.54540 | -7.93646 | 1253 ft | 15 kts | 231° |
| 2026-04-20 21:27 | 12.54479 | -7.93745 | 1253 ft | 16 kts | 243° |
| 2026-04-20 21:28 | 12.54409 | -7.93856 | 1254 ft | 21 kts | 238° |
| 2026-04-20 21:28 | 12.54324 | -7.93917 | 1253 ft | 16 kts | 159° |
| 2026-04-20 21:28 | 12.54218 | -7.93847 | 1248 ft | 18 kts | 149° |
| 2026-04-20 21:28 | 12.54134 | -7.93805 | 1245 ft | 6 kts | 194° |
| 2026-04-20 21:29 | 12.54097 | -7.93845 | 1245 ft | 8 kts | 236° |
| 2026-04-20 21:29 | 12.53951 | -7.94073 | 1248 ft | 88 kts | 236° |
| 2026-04-20 21:29 | 12.53442 | -7.94873 | 1373 ft | 165 kts | 236° |
| 2026-04-20 21:29 | 12.52787 | -7.95916 | 2222 ft | 192 kts | 235° |
| 2026-04-20 21:30 | 12.52030 | -7.97105 | 2959 ft | 200 kts | 236° |
| 2026-04-20 21:30 | 12.51185 | -7.98234 | 3754 ft | 203 kts | 214° |
| 2026-04-20 21:30 | 12.49882 | -7.98583 | 4586 ft | 203 kts | 168° |
| 2026-04-20 21:30 | 12.48721 | -7.97860 | 5430 ft | 204 kts | 122° |
| 2026-04-20 21:31 | 12.48286 | -7.96501 | 6279 ft | 210 kts | 98° |
| 2026-04-20 21:31 | 12.48119 | -7.94988 | 7105 ft | 222 kts | 89° |
| 2026-04-20 21:31 | 12.48145 | -7.93388 | 7943 ft | 234 kts | 89° |
| 2026-04-20 21:31 | 12.48176 | -7.91676 | 8788 ft | 249 kts | 88° |
| 2026-04-20 21:32 | 12.48217 | -7.89876 | 9627 ft | 265 kts | 88° |
| 2026-04-20 21:32 | 12.48266 | -7.87938 | 10477 ft | 282 kts | 88° |
| 2026-04-20 21:32 | 12.48320 | -7.85902 | 11323 ft | 300 kts | 88° |
| 2026-04-20 21:32 | 12.48380 | -7.83705 | 12188 ft | 318 kts | 88° |
| 2026-04-20 21:33 | 12.48443 | -7.81398 | 13049 ft | 334 kts | 88° |
| 2026-04-20 21:33 | 12.48512 | -7.78999 | 13893 ft | 350 kts | 88° |
| 2026-04-20 21:33 | 12.48583 | -7.76479 | 14739 ft | 365 kts | 89° |
| 2026-04-20 21:33 | 12.48655 | -7.73839 | 15594 ft | 380 kts | 89° |
| 2026-04-20 21:34 | 12.48730 | -7.71103 | 16445 ft | 394 kts | 89° |
| 2026-04-20 21:34 | 12.48809 | -7.68236 | 17308 ft | 407 kts | 90° |
| 2026-04-20 21:34 | 12.48887 | -7.65334 | 18167 ft | 418 kts | 90° |
| 2026-04-20 21:34 | 12.48968 | -7.62337 | 19031 ft | 429 kts | 90° |
| 2026-04-20 21:35 | 12.49052 | -7.59273 | 19899 ft | 436 kts | 90° |
| 2026-04-20 21:35 | 12.49136 | -7.56171 | 20767 ft | 440 kts | 90° |
| 2026-04-20 21:35 | 12.49221 | -7.53033 | 21636 ft | 446 kts | 90° |
| 2026-04-20 21:35 | 12.49307 | -7.49849 | 22516 ft | 453 kts | 90° |
| 2026-04-20 21:36 | 12.49390 | -7.46621 | 23414 ft | 463 kts | 90° |
| 2026-04-20 21:36 | 12.49478 | -7.43314 | 24305 ft | 472 kts | 89° |
| 2026-04-20 21:36 | 12.49568 | -7.39919 | 24932 ft | 486 kts | 89° |
| 2026-04-20 21:36 | 12.49660 | -7.36445 | 25672 ft | 497 kts | 89° |
| 2026-04-20 21:37 | 12.49753 | -7.32893 | 26443 ft | 506 kts | 88° |
| 2026-04-20 21:37 | 12.49847 | -7.29290 | 27193 ft | 514 kts | 88° |
| 2026-04-20 21:37 | 12.49944 | -7.25565 | 27851 ft | 523 kts | 88° |
| 2026-04-20 21:37 | 12.50040 | -7.21851 | 28484 ft | 532 kts | 87° |
| 2026-04-20 21:38 | 12.50139 | -7.18031 | 29163 ft | 539 kts | 87° |
| 2026-04-20 21:38 | 12.50236 | -7.14180 | 29772 ft | 547 kts | 87° |
| 2026-04-20 21:38 | 12.50337 | -7.10285 | 30362 ft | 554 kts | 87° |
| 2026-04-20 21:38 | 12.50435 | -7.06353 | 30877 ft | 561 kts | 86° |
| 2026-04-20 21:39 | 12.50538 | -7.02288 | 30918 ft | 578 kts | 86° |
| 2026-04-20 21:39 | 12.50642 | -6.98155 | 30923 ft | 590 kts | 87° |
| 2026-04-20 21:39 | 12.50746 | -6.93963 | 30789 ft | 590 kts | 87° |
| 2026-04-20 21:40 | 12.50948 | -6.85717 | 30783 ft | 579 kts | 86° |
| 2026-04-20 21:40 | 12.51148 | -6.77490 | 30784 ft | 579 kts | 87° |
| 2026-04-20 21:41 | 12.51345 | -6.69276 | 30784 ft | 580 kts | 87° |
| 2026-04-20 21:41 | 12.51539 | -6.61044 | 30795 ft | 580 kts | 86° |
| 2026-04-20 21:42 | 12.51557 | -6.52786 | 30803 ft | 581 kts | 90° |
| 2026-04-20 21:42 | 12.51339 | -6.44494 | 30803 ft | 582 kts | 90° |
| 2026-04-20 21:43 | 12.51136 | -6.36276 | 30803 ft | 582 kts | 90° |
| 2026-04-20 21:43 | 12.50930 | -6.28004 | 30790 ft | 582 kts | 90° |
| 2026-04-20 21:44 | 12.50721 | -6.19765 | 30791 ft | 582 kts | 90° |
| 2026-04-20 21:44 | 12.50508 | -6.11485 | 30794 ft | 582 kts | 90° |
| 2026-04-20 21:45 | 12.50294 | -6.03249 | 30803 ft | 582 kts | 90° |
| 2026-04-20 21:45 | 12.50077 | -5.94961 | 30800 ft | 582 kts | 90° |
| 2026-04-20 21:46 | 12.49859 | -5.86705 | 30794 ft | 582 kts | 90° |
| 2026-04-20 21:46 | 12.49636 | -5.78453 | 30794 ft | 584 kts | 90° |
| 2026-04-20 21:47 | 12.49410 | -5.70169 | 30798 ft | 582 kts | 90° |
| 2026-04-20 21:47 | 12.49183 | -5.61895 | 30802 ft | 583 kts | 90° |
| 2026-04-20 21:48 | 12.48953 | -5.53625 | 30802 ft | 583 kts | 90° |
| 2026-04-20 21:48 | 12.48721 | -5.45373 | 30805 ft | 584 kts | 90° |
| 2026-04-20 21:49 | 12.48487 | -5.37059 | 30806 ft | 584 kts | 90° |
| 2026-04-20 21:49 | 12.48245 | -5.28790 | 30787 ft | 583 kts | 91° |
| 2026-04-20 21:50 | 12.48002 | -5.20518 | 30786 ft | 584 kts | 91° |
| 2026-04-20 21:50 | 12.47756 | -5.12218 | 30785 ft | 583 kts | 90° |
| 2026-04-20 21:51 | 12.47509 | -5.03980 | 30778 ft | 583 kts | 91° |
| 2026-04-20 21:51 | 12.47258 | -4.95659 | 30784 ft | 584 kts | 91° |
| 2026-04-20 21:52 | 12.47006 | -4.87400 | 30788 ft | 583 kts | 91° |
| 2026-04-20 21:52 | 12.46749 | -4.79086 | 30789 ft | 585 kts | 91° |
| 2026-04-20 21:53 | 12.46491 | -4.70831 | 30801 ft | 585 kts | 91° |
| 2026-04-20 21:53 | 12.46228 | -4.62487 | 30805 ft | 585 kts | 90° |
| 2026-04-20 21:54 | 12.45970 | -4.54194 | 30819 ft | 584 kts | 90° |
| 2026-04-20 21:54 | 12.46298 | -4.50117 | 30826 ft | 581 kts | 79° |
| 2026-04-20 21:54 | 12.46934 | -4.45992 | 30829 ft | 582 kts | 78° |
| 2026-04-20 21:55 | 12.48185 | -4.37826 | 30829 ft | 583 kts | 79° |
| 2026-04-20 21:55 | 12.49423 | -4.29697 | 30801 ft | 582 kts | 79° |
| 2026-04-20 21:56 | 12.50662 | -4.21542 | 30795 ft | 580 kts | 79° |
| 2026-04-20 21:56 | 12.51899 | -4.13382 | 30786 ft | 583 kts | 79° |
| 2026-04-20 21:57 | 12.53133 | -4.05232 | 30787 ft | 582 kts | 79° |
| 2026-04-20 21:57 | 12.54370 | -3.97028 | 30776 ft | 582 kts | 79° |
| 2026-04-20 21:58 | 12.55594 | -3.88901 | 30767 ft | 580 kts | 79° |
| 2026-04-20 21:58 | 12.56402 | -3.80683 | 30773 ft | 583 kts | 89° |
| 2026-04-20 21:59 | 12.56241 | -3.72404 | 30776 ft | 585 kts | 90° |
| 2026-04-20 21:59 | 12.56090 | -3.64066 | 30778 ft | 584 kts | 90° |
| 2026-04-20 22:00 | 12.55939 | -3.55807 | 30777 ft | 583 kts | 90° |
| 2026-04-20 22:00 | 12.55850 | -3.51096 | 30781 ft | 583 kts | 90° |
| 2026-04-20 22:01 | 12.55840 | -3.50538 | 30781 ft | 583 kts | 90° |
| 2026-04-20 22:01 | 12.55763 | -3.46447 | 30687 ft | 566 kts | 90° |
| 2026-04-20 22:02 | 12.55687 | -3.42478 | 30605 ft | 557 kts | 90° |
| 2026-04-20 22:02 | 12.55537 | -3.34596 | 30468 ft | 556 kts | 90° |
| 2026-04-20 22:03 | 12.55382 | -3.26657 | 30272 ft | 559 kts | 90° |
| 2026-04-20 22:03 | 12.55307 | -3.22717 | 29901 ft | 560 kts | 91° |
| 2026-04-20 22:03 | 12.55226 | -3.18750 | 29334 ft | 551 kts | 90° |
| 2026-04-20 22:03 | 12.55152 | -3.14876 | 28743 ft | 543 kts | 91° |
| 2026-04-20 22:04 | 12.55073 | -3.11021 | 28166 ft | 535 kts | 91° |
| 2026-04-20 22:04 | 12.54997 | -3.07287 | 27602 ft | 526 kts | 91° |
| 2026-04-20 22:04 | 12.54922 | -3.03578 | 27035 ft | 517 kts | 91° |
| 2026-04-20 22:04 | 12.54847 | -2.99902 | 26453 ft | 510 kts | 91° |
| 2026-04-20 22:05 | 12.54772 | -2.96306 | 25896 ft | 503 kts | 91° |
| 2026-04-20 22:05 | 12.54700 | -2.92761 | 25351 ft | 496 kts | 91° |
| 2026-04-20 22:05 | 12.54626 | -2.89295 | 24812 ft | 489 kts | 91° |
| 2026-04-20 22:05 | 12.54554 | -2.85837 | 24277 ft | 481 kts | 92° |
| 2026-04-20 22:06 | 12.54481 | -2.82430 | 23746 ft | 474 kts | 92° |
| 2026-04-20 22:06 | 12.54411 | -2.79130 | 23221 ft | 469 kts | 92° |
| 2026-04-20 22:06 | 12.54271 | -2.75827 | 22693 ft | 461 kts | 98° |
| 2026-04-20 22:06 | 12.53666 | -2.72607 | 22199 ft | 453 kts | 103° |
| 2026-04-20 22:07 | 12.53012 | -2.69487 | 21698 ft | 449 kts | 103° |
| 2026-04-20 22:07 | 12.52371 | -2.66418 | 21211 ft | 444 kts | 103° |
| 2026-04-20 22:07 | 12.51733 | -2.63348 | 20723 ft | 439 kts | 103° |
| 2026-04-20 22:07 | 12.51096 | -2.60291 | 20237 ft | 433 kts | 103° |
| 2026-04-20 22:08 | 12.50476 | -2.57311 | 19761 ft | 428 kts | 103° |
| 2026-04-20 22:08 | 12.49889 | -2.54499 | 19313 ft | 423 kts | 103° |
| 2026-04-20 22:08 | 12.49279 | -2.51573 | 18847 ft | 418 kts | 103° |
| 2026-04-20 22:08 | 12.48674 | -2.48669 | 18387 ft | 413 kts | 103° |
| 2026-04-20 22:09 | 12.48082 | -2.45833 | 17934 ft | 408 kts | 103° |
| 2026-04-20 22:09 | 12.47498 | -2.43035 | 17491 ft | 402 kts | 103° |
| 2026-04-20 22:09 | 12.46911 | -2.40226 | 17049 ft | 398 kts | 103° |
| 2026-04-20 22:09 | 12.46341 | -2.37497 | 16617 ft | 395 kts | 103° |
| 2026-04-20 22:10 | 12.45766 | -2.34752 | 16182 ft | 393 kts | 103° |
| 2026-04-20 22:10 | 12.45201 | -2.32050 | 15757 ft | 389 kts | 102° |
| 2026-04-20 22:10 | 12.44636 | -2.29350 | 15331 ft | 387 kts | 102° |
| 2026-04-20 22:10 | 12.44078 | -2.26688 | 14906 ft | 383 kts | 102° |
| 2026-04-20 22:11 | 12.43520 | -2.24024 | 14488 ft | 381 kts | 102° |
| 2026-04-20 22:11 | 12.42966 | -2.21383 | 14074 ft | 378 kts | 102° |
| 2026-04-20 22:11 | 12.42416 | -2.18757 | 13653 ft | 377 kts | 102° |
| 2026-04-20 22:11 | 12.41868 | -2.16148 | 13242 ft | 373 kts | 102° |
| 2026-04-20 22:12 | 12.41331 | -2.13588 | 12832 ft | 372 kts | 102° |
| 2026-04-20 22:12 | 12.40788 | -2.11004 | 12419 ft | 370 kts | 102° |
| 2026-04-20 22:12 | 12.40250 | -2.08443 | 12015 ft | 367 kts | 102° |
| 2026-04-20 22:12 | 12.39714 | -2.05894 | 11608 ft | 366 kts | 102° |
| 2026-04-20 22:13 | 12.39184 | -2.03377 | 11209 ft | 363 kts | 102° |
| 2026-04-20 22:13 | 12.38651 | -2.00847 | 10807 ft | 361 kts | 102° |
| 2026-04-20 22:13 | 12.38128 | -1.98360 | 10409 ft | 352 kts | 102° |
| 2026-04-20 22:13 | 12.37625 | -1.95973 | 10025 ft | 340 kts | 102° |
| 2026-04-20 22:14 | 12.37134 | -1.93646 | 9655 ft | 330 kts | 101° |
| 2026-04-20 22:14 | 12.36658 | -1.91387 | 9298 ft | 320 kts | 101° |
| 2026-04-20 22:14 | 12.36196 | -1.89196 | 8944 ft | 312 kts | 101° |
| 2026-04-20 22:14 | 12.35652 | -1.87092 | 8592 ft | 304 kts | 113° |
| 2026-04-20 22:15 | 12.34575 | -1.85259 | 8284 ft | 297 kts | 122° |
| 2026-04-20 22:15 | 12.33443 | -1.83510 | 7953 ft | 291 kts | 122° |
| 2026-04-20 22:15 | 12.32348 | -1.81817 | 7637 ft | 286 kts | 122° |
| 2026-04-20 22:15 | 12.31260 | -1.80137 | 7320 ft | 281 kts | 122° |
| 2026-04-20 22:16 | 12.30186 | -1.78477 | 7012 ft | 277 kts | 122° |
| 2026-04-20 22:16 | 12.29126 | -1.76841 | 6707 ft | 273 kts | 122° |
| 2026-04-20 22:16 | 12.28086 | -1.75237 | 6408 ft | 269 kts | 122° |
| 2026-04-20 22:16 | 12.27057 | -1.73648 | 6110 ft | 266 kts | 122° |
| 2026-04-20 22:17 | 12.26047 | -1.72091 | 5814 ft | 263 kts | 122° |
| 2026-04-20 22:17 | 12.25048 | -1.70551 | 5521 ft | 260 kts | 122° |
| 2026-04-20 22:17 | 12.24051 | -1.69009 | 5235 ft | 257 kts | 122° |
| 2026-04-20 22:17 | 12.23076 | -1.67504 | 4954 ft | 254 kts | 122° |
| 2026-04-20 22:18 | 12.22104 | -1.66003 | 4676 ft | 251 kts | 122° |
| 2026-04-20 22:18 | 12.21145 | -1.64522 | 4402 ft | 249 kts | 122° |
| 2026-04-20 22:18 | 12.20507 | -1.62923 | 4120 ft | 243 kts | 92° |
| 2026-04-20 22:18 | 12.20941 | -1.61323 | 3902 ft | 233 kts | 59° |
| 2026-04-20 22:19 | 12.22144 | -1.60207 | 3471 ft | 234 kts | 38° |
| 2026-04-20 22:19 | 12.23406 | -1.59244 | 3163 ft | 214 kts | 38° |
| 2026-04-20 22:19 | 12.24528 | -1.58450 | 2842 ft | 179 kts | 37° |
| 2026-04-20 22:19 | 12.25496 | -1.57787 | 2888 ft | 161 kts | 37° |
| 2026-04-20 22:20 | 12.26388 | -1.57186 | 2756 ft | 147 kts | 36° |
| 2026-04-20 22:20 | 12.27220 | -1.56628 | 2551 ft | 143 kts | 36° |
| 2026-04-20 22:20 | 12.28052 | -1.56071 | 2375 ft | 144 kts | 37° |
| 2026-04-20 22:20 | 12.28887 | -1.55513 | 2195 ft | 142 kts | 36° |
| 2026-04-20 22:21 | 12.29720 | -1.54958 | 2017 ft | 139 kts | 36° |
| 2026-04-20 22:21 | 12.30561 | -1.54396 | 1844 ft | 148 kts | 35° |
| 2026-04-20 22:21 | 12.31412 | -1.53831 | 1647 ft | 150 kts | 36° |
| 2026-04-20 22:21 | 12.32240 | -1.53280 | 1470 ft | 140 kts | 36° |
| 2026-04-20 22:22 | 12.33097 | -1.52707 | 1307 ft | 149 kts | 33° |
| 2026-04-20 22:22 | 12.33968 | -1.52130 | 1123 ft | 148 kts | 34° |
| 2026-04-20 22:22 | 12.34804 | -1.51580 | 1035 ft | 127 kts | 35° |
| 2026-04-20 22:22 | 12.35288 | -1.51250 | 1020 ft | 18 kts | 30° |
| 2026-04-20 22:23 | 12.35361 | -1.51210 | 1018 ft | 4 kts | 9° |
| 2026-04-20 22:23 | 12.35394 | -1.51218 | 1017 ft | 5 kts | 331° |
| 2026-04-20 22:23 | 12.35413 | -1.51257 | 1018 ft | 11 kts | 288° |
| 2026-04-20 22:23 | 12.35407 | -1.51335 | 1019 ft | 12 kts | 221° |
| 2026-04-20 22:24 | 12.35342 | -1.51397 | 1021 ft | 12 kts | 258° |
| 2026-04-20 22:24 | 12.35341 | -1.51428 | 1022 ft | 0 kts | 265° |